Burton, Illinois
Current Conditions -  °F | °C
As of 3:54 AM on Sunday 23 Nov 2014 (Local Time) from KUIN Reporting Station
Scattered Clouds Scattered Clouds  
Wind Chill: 11°   Ceiling: Unl
Heat Index: 11°   Visibility: 9mi
Dew Point:   Wind: 9mph
Humidity: 86%   Direction: 160°SSE
Pressure: 29.69"   Gusts: NA
Location:  39.9317°N, 91.2953°W
Report Text: KUIN 230954Z AUTO 16008KT 9SM SCT060 11/08 A2969 RMK AO2 SLP054 T01060083
Loading
Personal Weather Stations






























Interactive Weather Map New forecast layout! Learn more

10-Day Weather Forecast

Advertisements
Track Severe Weather on mobile